首页
METAR-TAF:

METAR-TAF

机场 :

諾福克, 弗吉尼亚州, 美国

诺福克海军基地

纬度: 36-56-01N, 经度: 076-17-45W, 海拔: 4米

当前天气观测

该预报发布于33分钟前的13:59 UTC
风速3节,风向多变
温度 16°C
湿度 42%
气压 1030 hPa
能見度: 16.1公里
少量云层高于20000英尺
少量云层高于30000英尺

METAR: KNGU 221359Z VRB03KT 10SM FEW200 FEW300 16/03 A3043 RMK AO2 SLP304 T01560028

时间: 10:32 (14:32 UTC)

预报

预报有效从22日的 07点(UTC)到 23日的 07点(UTC)
风速4节,风向多变
能见度10公里或以上
散云层高于15000英尺
成为
从 22日的 18点(UTC)到 22日的 20点(UTC)
风速9节,风向
能见度10公里或以上
散云层高于7000英尺
散云层高于20000英尺
成为
从 23日的 00点(UTC)到 23日的 02点(UTC)
风速5节,风向多变
能见度10公里或以上

TAF: KNGU 2207/2307 VRB04KT 9999 SCT150 QNH3033INS BECMG 2218/2220 08009KT 9999 SCT070 SCT200 QNH3035INS BECMG 2300/2302 VRB05KT 9999 FEW07 QNH3037INS T08/2208Z T15/2220Z FN00185

超过4000个机场的气象观测和天气预报(METAR&TAF报告)。

可查询的气象台以黄色和红色小点在地图上表示。

将鼠标移到小点上方,可查看气象台名称。

然后点击查看天气观测和预报。

如需切换地图:点击带黑十字的绿色按钮放大地图;点击带横线的绿色按钮缩小地图;或者点击绿色箭头查看邻近地区的地图。


METAR-TAF: